Flight Track Log - Related Links

Times and Time Zones

All times are in EDT time to prevent confusion due to time zone crossing. See the SKW6492 flight status page for this flight to view local times or setup timezone preferences in your user account.

Time Position Orientation Groundspeed Altitude Reporting Facility
EDT Latitude Longitude Course Direction KTS MPH feet Rate Location/Type
Sun 09:39:14 PM 39.8500 -104.7667 346° North 202 232 6,900  Level Denver TRACON
Sun 09:40:14 PM 39.8833 -104.8333 303° West 246 283 8,600 1,526 Climbing Denver TRACON
Sun 09:41:08 PM 39.9500 -104.8500 349° North 299 344 9,800 1,474 Climbing Denver TRACON
Sun 09:42:08 PM 40.0333 -104.8500 360° North 318 366 11,400 1,250 Climbing Denver TRACON
Sun 09:43:08 PM 40.1333 -104.8500 360° North 353 406 12,300 1,263 Climbing Denver TRACON
Sun 09:44:00 PM 40.4815 -104.8716 346° North  Level FlightAware Approximate
Sun 09:44:02 PM 40.2167 -104.8500 360° North 367 422 13,800  Level Denver TRACON
Sun 09:44:50 PM 40.3000 -104.8500 360° North 373 429 14,900 1,579 Climbing Denver TRACON
Sun 09:45:56 PM 40.4167 -104.8500 360° North 360 414 16,800 1,167 Climbing Denver TRACON
Sun 09:47:14 PM 40.5422 -104.8483 North 366 421 17,700 950 Climbing Salt Lake Center
Sun 09:48:15 PM 40.6433 -104.8506 359° North 374 430 19,000 976 Climbing Salt Lake Center
Sun 09:49:17 PM 40.7506 -104.8506 360° North 369 425 19,700 780 Climbing Denver Center
Sun 09:50:18 PM 40.8550 -104.8842 346° North 386 444 20,600 780 Climbing Denver Center
Sun 09:51:20 PM 40.9575 -104.9325 340° North 392 451 21,300 829 Climbing Denver Center
Sun 09:52:21 PM 41.0758 -104.9917 339° North 393 452 22,300 836 Climbing Denver Center
Sun 09:53:22 PM 41.1758 -105.0425 339° North 397 457 23,000 639 Climbing Denver Center
Sun 09:54:23 PM 41.2781 -105.0925 340° North 405 466 23,600 689 Climbing Denver Center
Sun 09:55:24 PM 41.3950 -105.1492 340° North 402 463 24,400 634 Climbing Denver Center
Sun 09:56:26 PM 41.4958 -105.2022 338° Northwest 404 465 24,900 488 Climbing Denver Center
Sun 09:57:27 PM 41.6078 -105.2789 333° Northwest 411 473 25,400 590 Climbing Denver Center
Sun 09:58:28 PM 41.6886 -105.3725 319° Northwest 401 461 26,100 590 Climbing Denver Center
Sun 09:59:29 PM 41.7708 -105.4636 320° Northwest 400 460 26,600 541 Climbing Denver Center
Sun 10:00:30 PM 41.8661 -105.5728 320° Northwest 401 461 27,200 537 Climbing Denver Center
Sun 10:01:32 PM 41.9506 -105.6675 320° Northwest 407 468 27,700 390 Climbing Denver Center
Sun 10:02:33 PM 42.0319 -105.7639 319° Northwest 406 467 28,000 148 Climbing Denver Center
Sun 10:03:34 PM 42.1281 -105.8778 319° Northwest 410 472 28,000  Level Denver Center
Sun 10:04:35 PM 42.2133 -105.9786 319° Northwest 422 486 28,000  Level Denver Center
Sun 10:05:36 PM 42.2992 -106.0783 319° Northwest 425 489 28,000  Level Denver Center
Sun 10:06:37 PM 42.4008 -106.1989 319° Northwest 432 497 28,000  Level Denver Center
Sun 10:07:38 PM 42.4897 -106.3025 319° Northwest 437 503 28,000  Level Denver Center
Sun 10:08:39 PM 42.5769 -106.4078 318° Northwest 438 504 28,000  Level Denver Center
Sun 10:09:40 PM 42.6789 -106.5297 319° Northwest 437 503 28,000  Level Denver Center
Sun 10:10:41 PM 42.7661 -106.6342 319° Northwest 436 502 28,000  Level Denver Center
Sun 10:11:43 PM 42.8697 -106.7567 319° Northwest 439 505 28,000  Level Denver Center
Sun 10:12:44 PM 42.9558 -106.8619 318° Northwest 437 503 28,000  Level Denver Center
Sun 10:13:45 PM 43.0433 -106.9689 318° Northwest 439 505 28,000  Level Denver Center
Sun 10:14:42 PM 43.1356 -107.0839 318° Northwest 439 505 28,000  Level Salt Lake Center
Sun 10:15:43 PM 43.2275 -107.1956 319° Northwest 442 509 28,000  Level Salt Lake Center
Sun 10:16:44 PM 43.3194 -107.3086 318° Northwest 443 510 28,000  Level Salt Lake Center
Sun 10:17:45 PM 43.4103 -107.4242 317° Northwest 445 512 28,000  Level Salt Lake Center
Sun 10:18:46 PM 43.5025 -107.5372 318° Northwest 445 512 28,000  Level Salt Lake Center
Sun 10:19:47 PM 43.5939 -107.6519 318° Northwest 445 512 28,000 -246 Level Salt Lake Center
Sun 10:20:48 PM 43.6853 -107.7656 318° Northwest 444 511 27,500 -1,377 Descending Salt Lake Center
Sun 10:21:49 PM 43.7767 -107.8817 317° Northwest 445 512 25,200 -2,213 Descending Salt Lake Center
Sun 10:22:50 PM 43.8672 -107.9953 318° Northwest 440 506 23,000 -2,164 Descending Salt Lake Center
Sun 10:23:51 PM 43.9547 -108.1069 317° Northwest 430 495 20,800 -2,508 Descending Salt Lake Center
Sun 10:24:52 PM 44.0294 -108.2275 311° West 418 481 17,900 -3,148 Descending Salt Lake Center
Sun 10:25:53 PM 44.1164 -108.3697 310° West 409 471 14,400 -2,902 Descending Salt Lake Center
Sun 10:26:54 PM 44.1886 -108.4844 311° West 402 463 12,000 -1,180 Descending Salt Lake Center
Sun 10:27:55 PM 44.2575 -108.5956 311° West 393 452 12,000 -49 Level Salt Lake Center
Sun 10:28:56 PM 44.3286 -108.7011 313° West 382 440 11,900 -738 Descending Salt Lake Center
Sun 10:29:57 PM 44.4031 -108.7706 326° Northwest 351 404 10,500 -1,475 Descending Salt Lake Center
Sun 10:30:58 PM 44.4622 -108.8072 336° Northwest 281 323 8,900 -1,230 Descending Salt Lake Center
Sun 10:31:59 PM 44.5025 -108.8569 319° Northwest 227 261 8,000 -793 Descending Salt Lake Center
Sun 10:32:59 PM 44.5375 -108.9103 313° West 204 235 7,300 -700 Descending Salt Lake Center

Login

Don't have an account? Register now (free) for customized features, flight alerts, and more!